createdAt,value
2023-01-08T00:00:03.698Z,7.10
2023-01-08T00:05:17.328Z,8.57
2023-01-08T00:10:21.368Z,8.23
2023-01-08T00:15:27.525Z,9.85
2023-01-08T00:20:31.615Z,10.50
2023-01-08T00:25:35.796Z,14.85
2023-01-08T00:30:41.125Z,13.10
2023-01-08T00:35:45.391Z,11.25
2023-01-08T00:40:49.794Z,9.00
2023-01-08T00:45:55.534Z,10.55
2023-01-08T00:50:59.605Z,10.48
2023-01-08T00:56:07.878Z,15.40
2023-01-08T01:01:15.909Z,8.00
2023-01-08T01:06:20.184Z,5.10
2023-01-08T01:11:26.656Z,5.18
2023-01-08T01:16:32.219Z,7.00
2023-01-08T01:21:38.067Z,7.70
2023-01-08T01:26:42.679Z,10.23
2023-01-08T01:31:48.169Z,9.43
2023-01-08T01:36:52.125Z,7.68
2023-01-08T01:41:56.190Z,12.82
2023-01-08T01:47:04.048Z,15.70
2023-01-08T01:52:10.341Z,15.60
2023-01-08T01:57:14.619Z,9.15
2023-01-08T02:02:22.737Z,5.30
2023-01-08T02:07:34.068Z,6.03
2023-01-08T02:12:43.261Z,6.30
2023-01-08T02:17:55.418Z,7.07
2023-01-08T02:23:12.897Z,7.97
2023-01-08T02:28:19.007Z,7.43
2023-01-08T02:33:24.404Z,7.40
2023-01-08T02:38:28.839Z,6.32
2023-01-08T02:43:41.301Z,5.25
2023-01-08T02:48:49.951Z,6.18
2023-01-08T02:54:00.770Z,5.40
2023-01-08T02:59:12.175Z,11.32
2023-01-08T03:04:21.218Z,6.07
2023-01-08T03:09:25.348Z,4.80
2023-01-08T03:14:38.431Z,5.60
2023-01-08T03:19:46.872Z,4.72
2023-01-08T03:24:54.138Z,5.13
2023-01-08T03:30:00.903Z,16.90
2023-01-08T03:35:11.466Z,20.75
2023-01-08T03:40:21.339Z,16.02
2023-01-08T03:45:28.923Z,25.42
2023-01-08T03:50:33.833Z,27.17
2023-01-08T03:55:38.140Z,32.75
2023-01-08T04:00:43.789Z,24.88
2023-01-08T04:05:47.840Z,29.52
2023-01-08T04:10:52.098Z,31.15
2023-01-08T04:15:58.367Z,41.90
2023-01-08T04:21:02.390Z,32.78
2023-01-08T04:26:07.439Z,27.13
2023-01-08T04:31:12.879Z,31.60
2023-01-08T04:36:17.129Z,26.27
2023-01-08T04:41:21.268Z,17.70
2023-01-08T04:46:26.649Z,15.15
2023-01-08T04:51:30.903Z,12.25
2023-01-08T04:56:35.548Z,17.63
2023-01-08T05:01:41.327Z,12.85
2023-01-08T05:06:45.858Z,9.90
2023-01-08T05:11:50.127Z,9.73
2023-01-08T05:16:55.714Z,14.50
2023-01-08T05:22:00.275Z,13.18
2023-01-08T05:27:05.382Z,9.80
2023-01-08T05:32:16.616Z,10.93
2023-01-08T05:37:20.610Z,17.48
2023-01-08T05:42:24.885Z,19.90
2023-01-08T05:47:32.519Z,15.60
2023-01-08T05:52:37.609Z,18.00
2023-01-08T05:57:41.837Z,20.63
2023-01-08T06:02:49.482Z,32.70
2023-01-08T06:07:55.410Z,46.00
2023-01-08T06:12:59.363Z,34.72
2023-01-08T06:18:05.784Z,15.20
2023-01-08T06:23:09.923Z,22.52
2023-01-08T06:28:14.424Z,37.88
2023-01-08T06:33:21.558Z,42.20
2023-01-08T06:38:25.737Z,60.30
2023-01-08T06:43:30.377Z,108.13
2023-01-08T06:48:37.556Z,64.63
2023-01-08T06:53:41.689Z,42.63
2023-01-08T06:58:45.972Z,57.63
2023-01-08T07:03:51.564Z,67.90
2023-01-08T07:08:56.597Z,32.67
2023-01-08T07:14:01.360Z,22.35
2023-01-08T07:19:06.909Z,24.02
2023-01-08T07:24:11.196Z,23.35
2023-01-08T07:29:18.224Z,40.20
2023-01-08T07:34:24.535Z,46.00
2023-01-08T07:39:29.703Z,47.03
2023-01-08T07:44:35.005Z,70.07
2023-01-08T07:49:40.618Z,75.38
2023-01-08T07:54:45.860Z,84.28
2023-01-08T07:59:49.936Z,93.63
2023-01-08T08:04:55.602Z,71.90
2023-01-08T08:09:59.684Z,57.95
2023-01-08T08:15:03.702Z,62.15
2023-01-08T08:20:11.007Z,49.33
2023-01-08T08:25:15.488Z,36.78
2023-01-08T08:30:20.758Z,20.98
2023-01-08T08:35:26.967Z,33.55
2023-01-08T08:40:31.313Z,25.10
2023-01-08T08:45:35.475Z,12.52
2023-01-08T08:50:41.230Z,17.50
2023-01-08T08:55:45.388Z,12.80
2023-01-08T09:00:51.291Z,12.30
2023-01-08T09:05:59.571Z,10.23
2023-01-08T09:11:04.136Z,7.00
2023-01-08T09:16:09.313Z,9.93
2023-01-08T09:21:14.779Z,10.40
2023-01-08T09:26:19.832Z,5.72
2023-01-08T09:31:24.116Z,6.38
2023-01-08T09:36:29.458Z,6.32
2023-01-08T09:41:37.520Z,5.65
2023-01-08T09:46:42.112Z,5.78
2023-01-08T09:51:48.334Z,3.88
2023-01-08T09:56:52.784Z,6.68
2023-01-08T10:01:57.404Z,20.90
2023-01-08T10:07:12.922Z,5.93
2023-01-08T10:12:25.650Z,5.90
2023-01-08T10:17:36.273Z,6.10
2023-01-08T10:22:44.180Z,8.85
2023-01-08T10:27:50.954Z,9.63
2023-01-08T10:32:57.769Z,6.40
2023-01-08T10:38:03.929Z,5.15
2023-01-08T10:43:15.128Z,5.35
2023-01-08T10:48:19.946Z,5.00
2023-01-08T10:53:28.153Z,3.00
2023-01-08T10:58:43.581Z,5.07
2023-01-08T11:03:52.876Z,5.25
2023-01-08T11:09:01.279Z,3.35
2023-01-08T11:14:07.831Z,5.10
2023-01-08T11:19:20.323Z,4.95
2023-01-08T11:24:30.214Z,2.72
2023-01-08T11:29:44.703Z,3.17
2023-01-08T11:34:56.165Z,2.55
2023-01-08T11:40:01.943Z,2.20
2023-01-08T11:45:17.804Z,3.55
2023-01-08T11:50:29.502Z,2.78
2023-01-08T11:55:51.650Z,2.65
2023-01-08T12:01:31.427Z,2.08
2023-01-08T12:06:48.610Z,2.58
2023-01-08T12:12:13.045Z,2.33
2023-01-08T12:17:39.578Z,2.47
2023-01-08T12:22:51.288Z,3.97
2023-01-08T12:28:25.461Z,4.45
2023-01-08T12:33:37.669Z,2.42
2023-01-08T12:38:47.140Z,3.50
2023-01-08T12:44:06.765Z,7.07
2023-01-08T12:49:16.334Z,2.85
2023-01-08T12:54:34.761Z,5.47
2023-01-08T12:59:49.837Z,2.70
2023-01-08T13:04:54.007Z,4.53
2023-01-08T13:10:02.399Z,3.20
2023-01-08T13:15:09.806Z,3.13
2023-01-08T13:20:24.472Z,5.95
2023-01-08T13:25:32.630Z,4.78
2023-01-08T13:30:40.975Z,3.08
2023-01-08T13:35:44.961Z,3.67
2023-01-08T13:40:57.559Z,6.25
2023-01-08T13:46:21.604Z,7.05
2023-01-08T13:51:35.006Z,3.63
2023-01-08T13:56:39.741Z,12.35
2023-01-08T14:01:54.823Z,9.57
2023-01-08T14:07:14.669Z,12.23
2023-01-08T14:12:21.774Z,10.57
2023-01-08T14:17:32.402Z,11.57
2023-01-08T14:22:37.259Z,11.13
2023-01-08T14:27:41.340Z,10.60
2023-01-08T14:32:47.002Z,6.30
2023-01-08T14:37:51.037Z,6.07
2023-01-08T14:42:55.956Z,5.18
2023-01-08T14:48:09.636Z,6.00
2023-01-08T14:53:24.697Z,7.85
2023-01-08T14:58:31.509Z,12.88
2023-01-08T15:03:39.544Z,10.00
2023-01-08T15:08:46.828Z,3.72
2023-01-08T15:13:52.381Z,3.85
2023-01-08T15:19:04.033Z,5.85
2023-01-08T15:24:09.080Z,63.80
2023-01-08T15:29:19.598Z,44.95
2023-01-08T15:34:25.418Z,22.00
2023-01-08T15:39:30.002Z,18.85
2023-01-08T15:44:34.369Z,11.15
2023-01-08T15:49:40.045Z,6.45
2023-01-08T15:54:46.913Z,17.25
2023-01-08T15:59:51.329Z,16.85
2023-01-08T16:04:57.686Z,35.83
2023-01-08T16:10:02.680Z,44.05
2023-01-08T16:15:08.942Z,45.00
2023-01-08T16:20:18.666Z,43.60
2023-01-08T16:25:24.404Z,25.70
2023-01-08T16:30:28.754Z,12.10
2023-01-08T16:35:34.466Z,7.15
2023-01-08T16:40:42.211Z,8.55
2023-01-08T16:45:49.965Z,4.13
2023-01-08T16:50:56.844Z,4.35
2023-01-08T16:56:01.712Z,10.55
2023-01-08T17:01:10.829Z,24.10
2023-01-08T17:06:16.849Z,35.60
2023-01-08T17:11:24.028Z,36.03
2023-01-08T17:16:28.299Z,22.85
2023-01-08T17:21:36.865Z,13.13
2023-01-08T17:26:41.546Z,19.63
2023-01-08T17:31:46.011Z,33.90
2023-01-08T17:36:51.617Z,42.20
2023-01-08T17:42:14.058Z,7.90
2023-01-08T17:47:19.825Z,10.77
2023-01-08T17:52:26.746Z,8.30
2023-01-08T17:57:31.909Z,17.67
2023-01-08T18:02:36.361Z,14.85
2023-01-08T18:07:42.010Z,20.80
2023-01-08T18:12:47.830Z,31.00
2023-01-08T18:17:52.817Z,21.02
2023-01-08T18:22:58.956Z,28.83
2023-01-08T18:28:03.472Z,8.48
2023-01-08T18:33:07.610Z,16.73
2023-01-08T18:38:15.913Z,26.30
2023-01-08T18:43:20.524Z,22.90
2023-01-08T18:48:27.424Z,33.38
2023-01-08T18:53:33.693Z,26.10
2023-01-08T18:58:39.047Z,16.10
2023-01-08T19:03:46.009Z,12.30
2023-01-08T19:08:52.029Z,10.15
2023-01-08T19:14:01.017Z,12.77
2023-01-08T19:19:16.519Z,7.95
2023-01-08T19:24:22.189Z,10.63
2023-01-08T19:29:27.490Z,11.13
2023-01-08T19:34:35.090Z,30.80
2023-01-08T19:39:42.218Z,19.70
2023-01-08T19:44:46.645Z,23.17
2023-01-08T19:49:53.160Z,14.45
2023-01-08T19:55:01.604Z,6.88
2023-01-08T20:00:07.069Z,6.85
2023-01-08T20:05:16.410Z,16.85
2023-01-08T20:10:24.485Z,15.13
2023-01-08T20:15:29.122Z,10.20
2023-01-08T20:20:33.349Z,18.00
2023-01-08T20:25:40.185Z,33.53
2023-01-08T20:30:44.792Z,70.45
2023-01-08T20:35:52.643Z,71.57
2023-01-08T20:40:58.391Z,65.68
2023-01-08T20:46:10.714Z,70.78
2023-01-08T20:51:16.224Z,69.50
2023-01-08T20:56:22.116Z,89.63
2023-01-08T21:01:31.756Z,71.95
2023-01-08T21:06:37.071Z,48.35
2023-01-08T21:11:43.484Z,48.88
2023-01-08T21:16:47.963Z,48.35
2023-01-08T21:21:53.850Z,54.17
2023-01-08T21:27:03.976Z,71.22
2023-01-08T21:32:08.389Z,30.05
2023-01-08T21:37:15.453Z,18.38
2023-01-08T21:42:38.305Z,16.65
2023-01-08T21:47:43.950Z,15.20
2023-01-08T21:53:05.603Z,27.23
2023-01-08T21:58:11.094Z,24.10
2023-01-08T22:03:15.757Z,16.33
2023-01-08T22:08:19.698Z,15.35
2023-01-08T22:13:25.144Z,16.73
2023-01-08T22:18:29.790Z,12.80
2023-01-08T22:23:37.989Z,11.88
2023-01-08T22:28:43.514Z,11.97
2023-01-08T22:33:47.494Z,12.98
2023-01-08T22:38:51.776Z,12.15
2023-01-08T22:43:58.464Z,12.13
2023-01-08T22:49:02.516Z,11.95
2023-01-08T22:54:07.782Z,10.57
2023-01-08T22:59:13.402Z,9.63
2023-01-08T23:04:17.696Z,9.73
2023-01-08T23:09:21.629Z,11.90
2023-01-08T23:14:27.573Z,11.00
2023-01-08T23:19:31.820Z,18.92
2023-01-08T23:24:35.827Z,16.65
2023-01-08T23:29:41.350Z,21.40
2023-01-08T23:34:45.360Z,10.75
2023-01-08T23:39:49.403Z,11.70
2023-01-08T23:44:55.081Z,10.68
2023-01-08T23:49:59.923Z,9.55
2023-01-08T23:55:04.125Z,13.32
